Time;durP1;ratioP1;P1;durP2;ratioP2;P2;SDS_P1;SDS_P2;PMS_P1;PMS_P2;Temp;Humidity;BMP_temperature;BMP_pressure;BME280_temperature;BME280_humidity;BME280_pressure;Samples;Min_cycle;Max_cycle;Signal;HPM_P1;HPM_P2
2022/05/11 00:03:57;;;;;;;6.50;4.67;;;;;;;;;;10367011;28;20048;-69
2022/05/11 00:08:58;;;;;;;8.10;4.78;;;;;;;;;;10348428;28;20034;-70
2022/05/11 00:13:58;;;;;;;5.80;4.38;;;;;;;;;;10348618;28;20013;-70
2022/05/11 00:18:59;;;;;;;6.60;4.85;;;;;;;;;;10348647;28;20061;-71
2022/05/11 00:23:59;;;;;;;10.07;5.45;;;;;;;;;;10348344;28;20029;-71
2022/05/11 00:29:00;;;;;;;6.40;5.05;;;;;;;;;;10348002;28;20033;-71
2022/05/11 00:34:00;;;;;;;8.23;5.53;;;;;;;;;;10347953;28;20037;-74
2022/05/11 00:39:00;;;;;;;8.95;5.80;;;;;;;;;;10348302;28;20072;-73
2022/05/11 00:44:06;;;;;;;10.65;5.68;;;;;;;;;;10363572;28;20025;-73
2022/05/11 00:54:29;;;;;;;7.35;5.32;;;;;;;;;;10371594;28;20141;-76
2022/05/11 00:59:31;;;;;;;8.73;6.47;;;;;;;;;;10363311;28;20257;-73
2022/05/11 01:04:33;;;;;;;11.90;6.22;;;;;;;;;;10364955;28;20030;-69
2022/05/11 01:09:33;;;;;;;15.35;7.20;;;;;;;;;;10347035;28;20048;-70
2022/05/11 01:14:35;;;;;;;12.05;5.15;;;;;;;;;;10330917;28;20087;-70
2022/05/11 01:19:38;;;;;;;9.07;4.20;;;;;;;;;;10346745;28;20157;-76
2022/05/11 01:24:43;;;;;;;5.60;4.22;;;;;;;;;;10364174;28;20037;-70
2022/05/11 01:29:44;;;;;;;6.60;4.65;;;;;;;;;;10330034;28;20037;-70
2022/05/11 01:34:44;;;;;;;5.82;4.63;;;;;;;;;;10363083;28;20437;-70
2022/05/11 01:39:44;;;;;;;4.78;4.18;;;;;;;;;;10345770;28;20037;-71
2022/05/11 01:44:45;;;;;;;6.63;4.82;;;;;;;;;;10363068;28;20567;-74
2022/05/11 01:49:45;;;;;;;9.97;4.97;;;;;;;;;;10363215;28;20034;-76
2022/05/11 01:54:46;;;;;;;7.30;5.65;;;;;;;;;;10362197;28;20046;-74
2022/05/11 01:59:46;;;;;;;9.55;6.70;;;;;;;;;;10361830;28;20088;-71
2022/05/11 02:10:05;;;;;;;7.40;5.55;;;;;;;;;;10362413;28;20113;-73
2022/05/11 02:15:07;;;;;;;8.50;6.27;;;;;;;;;;10361192;28;20018;-74
2022/05/11 02:20:07;;;;;;;10.13;6.20;;;;;;;;;;10344656;28;20620;-71
2022/05/11 02:25:08;;;;;;;7.53;5.68;;;;;;;;;;10344744;28;20045;-74
2022/05/11 02:30:10;;;;;;;7.57;5.65;;;;;;;;;;10362550;28;20036;-75
2022/05/11 02:35:13;;;;;;;9.63;6.03;;;;;;;;;;10362500;28;20022;-75
2022/05/11 02:40:16;;;;;;;9.07;6.70;;;;;;;;;;10362064;28;20413;-70
2022/05/11 02:45:16;;;;;;;12.50;6.80;;;;;;;;;;10328134;28;20025;-71
2022/05/11 02:50:22;;;;;;;13.07;6.90;;;;;;;;;;10360905;28;20036;-70
2022/05/11 02:55:23;;;;;;;9.98;6.00;;;;;;;;;;10344195;28;20301;-71
2022/05/11 03:00:23;;;;;;;7.60;4.45;;;;;;;;;;10344089;28;20575;-77
2022/05/11 03:05:23;;;;;;;8.93;4.87;;;;;;;;;;10360134;28;20025;-74
2022/05/11 03:10:24;;;;;;;6.30;4.82;;;;;;;;;;10366604;28;20279;-71
2022/05/11 03:15:25;;;;;;;6.00;4.00;;;;;;;;;;10367513;28;20021;-70
2022/05/11 03:20:26;;;;;;;7.43;3.90;;;;;;;;;;10377348;28;20033;-71
2022/05/11 03:25:27;;;;;;;16.23;5.10;;;;;;;;;;10406587;28;20022;-74
2022/05/11 03:30:27;;;;;;;13.48;4.75;;;;;;;;;;10406514;28;20025;-70
2022/05/11 03:35:27;;;;;;;6.50;4.43;;;;;;;;;;10405819;28;20034;-71
2022/05/11 03:40:29;;;;;;;13.40;4.97;;;;;;;;;;10408715;28;20053;-70
2022/05/11 03:45:29;;;;;;;7.00;4.57;;;;;;;;;;10406820;28;20448;-71
2022/05/11 03:50:29;;;;;;;11.23;5.60;;;;;;;;;;10362881;28;20091;-71
2022/05/11 03:55:30;;;;;;;10.18;5.32;;;;;;;;;;10426656;28;20048;-71
2022/05/11 04:00:30;;;;;;;8.90;5.70;;;;;;;;;;10414537;28;20096;-70
2022/05/11 04:05:32;;;;;;;8.93;5.63;;;;;;;;;;10405313;28;20017;-71
2022/05/11 04:10:32;;;;;;;6.70;5.45;;;;;;;;;;10406178;28;20557;-75
2022/05/11 04:15:32;;;;;;;12.23;6.57;;;;;;;;;;10405619;28;20031;-74
2022/05/11 04:20:33;;;;;;;7.05;6.05;;;;;;;;;;10404231;28;20101;-77
2022/05/11 04:25:33;;;;;;;16.50;6.50;;;;;;;;;;10405250;28;20017;-71
2022/05/11 04:30:34;;;;;;;11.13;6.65;;;;;;;;;;10405984;28;20036;-74
2022/05/11 04:35:36;;;;;;;11.30;7.47;;;;;;;;;;10387308;28;20112;-71
2022/05/11 04:40:36;;;;;;;17.88;7.00;;;;;;;;;;10404836;28;20028;-75
2022/05/11 04:45:38;;;;;;;11.18;7.10;;;;;;;;;;10403012;28;20504;-71
2022/05/11 04:50:39;;;;;;;14.65;7.43;;;;;;;;;;10400742;28;20032;-71
2022/05/11 04:55:40;;;;;;;15.85;7.88;;;;;;;;;;10400869;28;20543;-74
2022/05/11 05:00:41;;;;;;;16.75;8.63;;;;;;;;;;10401081;28;20042;-71
2022/05/11 05:05:41;;;;;;;19.30;9.73;;;;;;;;;;10404640;28;20036;-70
2022/05/11 05:10:42;;;;;;;8.95;6.68;;;;;;;;;;10402889;28;20025;-74
2022/05/11 05:15:43;;;;;;;15.95;7.28;;;;;;;;;;10402454;28;20528;-74
2022/05/11 05:20:43;;;;;;;14.43;7.83;;;;;;;;;;10402860;28;20038;-69
2022/05/11 05:25:43;;;;;;;8.13;6.40;;;;;;;;;;10402588;28;20036;-71
2022/05/11 05:36:03;;;;;;;12.73;6.20;;;;;;;;;;10405083;28;20021;-70
2022/05/11 05:41:04;;;;;;;18.60;6.65;;;;;;;;;;10402466;28;20026;-74
2022/05/11 05:46:05;;;;;;;10.60;5.95;;;;;;;;;;10401670;28;20541;-74
2022/05/11 05:51:06;;;;;;;8.80;5.93;;;;;;;;;;10401944;28;20021;-74
2022/05/11 05:56:08;;;;;;;13.32;5.70;;;;;;;;;;10401865;28;20124;-71
2022/05/11 06:01:08;;;;;;;10.25;5.63;;;;;;;;;;10401131;28;20135;-74
2022/05/11 06:06:09;;;;;;;11.25;6.20;;;;;;;;;;10385588;28;20037;-71
2022/05/11 06:11:09;;;;;;;16.37;7.20;;;;;;;;;;10402099;28;20030;-70
2022/05/11 06:16:12;;;;;;;10.60;5.25;;;;;;;;;;10384854;28;20026;-71
2022/05/11 06:21:13;;;;;;;10.18;5.70;;;;;;;;;;10401589;28;20477;-71
2022/05/11 06:26:16;;;;;;;10.98;5.97;;;;;;;;;;10401688;28;20036;-72
2022/05/11 06:31:16;;;;;;;16.35;6.20;;;;;;;;;;10401294;28;20477;-75
2022/05/11 06:36:17;;;;;;;10.85;6.20;;;;;;;;;;10401356;28;20107;-75
2022/05/11 06:41:20;;;;;;;19.25;6.10;;;;;;;;;;10401514;28;20036;-69
2022/05/11 06:46:21;;;;;;;7.78;4.95;;;;;;;;;;10408804;28;20070;-76
2022/05/11 06:51:21;;;;;;;9.73;4.45;;;;;;;;;;10408570;28;20049;-69
2022/05/11 07:01:40;;;;;;;6.63;3.92;;;;;;;;;;10409641;28;20268;-74
2022/05/11 07:06:41;;;;;;;9.20;4.50;;;;;;;;;;10408309;28;20033;-70
2022/05/11 07:17:00;;;;;;;16.10;5.75;;;;;;;;;;10408722;28;20034;-71
2022/05/11 07:22:01;;;;;;;6.82;4.45;;;;;;;;;;10407854;28;20017;-74
2022/05/11 07:27:02;;;;;;;8.02;4.20;;;;;;;;;;10408032;28;20504;-73
2022/05/11 07:32:02;;;;;;;8.77;4.00;;;;;;;;;;10407435;28;20028;-69
2022/05/11 07:37:03;;;;;;;5.53;3.47;;;;;;;;;;10406795;28;20013;-70
2022/05/11 07:42:03;;;;;;;4.87;2.83;;;;;;;;;;10407348;28;20544;-73
2022/05/11 07:47:04;;;;;;;6.50;3.00;;;;;;;;;;10406437;28;20409;-73
2022/05/11 07:52:05;;;;;;;7.53;3.07;;;;;;;;;;10405712;28;20080;-74
2022/05/11 08:02:27;;;;;;;5.07;2.50;;;;;;;;;;10407475;28;20017;-76
2022/05/11 08:07:28;;;;;;;4.88;2.85;;;;;;;;;;10405807;28;20022;-69
2022/05/11 08:12:29;;;;;;;4.55;2.28;;;;;;;;;;10406194;28;20025;-76
2022/05/11 08:17:31;;;;;;;3.20;2.15;;;;;;;;;;10405518;28;20022;-73
2022/05/11 08:22:31;;;;;;;5.43;2.90;;;;;;;;;;10405612;28;20083;-74
2022/05/11 08:27:31;;;;;;;5.28;2.90;;;;;;;;;;10405428;28;20402;-73
2022/05/11 08:37:50;;;;;;;3.70;1.98;;;;;;;;;;10405584;28;20089;-68
2022/05/11 08:42:51;;;;;;;4.10;1.80;;;;;;;;;;10404214;28;20124;-69
2022/05/11 08:47:51;;;;;;;3.10;1.92;;;;;;;;;;10405270;28;20018;-73
2022/05/11 08:52:57;;;;;;;7.50;2.30;;;;;;;;;;10404154;28;20175;-71
2022/05/11 08:57:58;;;;;;;4.00;1.33;;;;;;;;;;10403978;28;20045;-70
2022/05/11 09:03:02;;;;;;;3.05;1.30;;;;;;;;;;10404032;28;20114;-72
2022/05/11 09:08:04;;;;;;;1.75;1.63;;;;;;;;;;10402951;28;20022;-73
2022/05/11 09:13:06;;;;;;;4.28;1.30;;;;;;;;;;10403945;28;20041;-71
2022/05/11 09:18:07;;;;;;;5.15;1.73;;;;;;;;;;10403095;28;20452;-69
2022/05/11 09:23:08;;;;;;;4.10;1.63;;;;;;;;;;10402992;28;20022;-74
2022/05/11 09:28:20;;;;;;;2.22;1.50;;;;;;;;;;10404256;28;20029;-73
2022/05/11 09:33:25;;;;;;;4.82;1.83;;;;;;;;;;10403194;28;20033;-72
2022/05/11 09:38:37;;;;;;;3.20;1.50;;;;;;;;;;10402608;28;20409;-75
2022/05/11 09:43:39;;;;;;;3.20;2.10;;;;;;;;;;10403481;28;20499;-69
2022/05/11 09:48:52;;;;;;;5.80;2.22;;;;;;;;;;10402195;28;20445;-70
2022/05/11 09:53:54;;;;;;;3.33;1.48;;;;;;;;;;10401735;28;20056;-71
2022/05/11 09:58:55;;;;;;;4.40;1.50;;;;;;;;;;10402353;28;20033;-73
2022/05/11 10:03:58;;;;;;;6.33;1.60;;;;;;;;;;10402192;28;20956;-74
2022/05/11 10:08:58;;;;;;;3.60;1.05;;;;;;;;;;10401667;28;20272;-68
2022/05/11 10:14:02;;;;;;;1.00;0.88;;;;;;;;;;10401939;28;20030;-76
2022/05/11 10:24:51;;;;;;;2.75;1.23;;;;;;;;;;10410866;28;20029;-74
2022/05/11 10:30:08;;;;;;;3.05;1.10;;;;;;;;;;10410118;28;20036;-71
2022/05/11 10:35:31;;;;;;;1.40;1.30;;;;;;;;;;10409428;28;20030;-70
2022/05/11 10:41:04;;;;;;;1.50;1.20;;;;;;;;;;10409082;28;20112;-73
2022/05/11 10:46:08;;;;;;;2.55;1.35;;;;;;;;;;10386726;28;20117;-70
2022/05/11 10:51:15;;;;;;;3.63;1.40;;;;;;;;;;10408869;28;20409;-75
2022/05/11 10:56:23;;;;;;;3.40;1.33;;;;;;;;;;10380398;28;20089;-71
2022/05/11 11:01:25;;;;;;;2.53;1.30;;;;;;;;;;10350947;28;20088;-70
2022/05/11 11:12:25;;;;;;;3.80;1.63;;;;;;;;;;10202948;29;20035;-71
2022/05/11 11:17:27;;;;;;;6.57;2.08;;;;;;;;;;10374449;23;20063;-71
2022/05/11 11:22:27;;;;;;;4.75;2.20;;;;;;;;;;10449101;28;20048;-70
2022/05/11 11:27:48;;;;;;;6.37;2.10;;;;;;;;;;10448365;28;20757;-70
2022/05/11 11:33:07;;;;;;;5.88;2.25;;;;;;;;;;10450129;28;20111;-69
2022/05/11 11:38:22;;;;;;;7.07;1.80;;;;;;;;;;10448990;28;20594;-69
2022/05/11 11:43:42;;;;;;;3.75;1.60;;;;;;;;;;10447945;28;20044;-69
2022/05/11 11:48:45;;;;;;;8.27;1.60;;;;;;;;;;10430867;28;20028;-75
2022/05/11 11:53:52;;;;;;;1.92;1.50;;;;;;;;;;10447572;28;20025;-71
2022/05/11 11:59:03;;;;;;;3.42;1.88;;;;;;;;;;10431463;28;20025;-73
2022/05/11 12:04:09;;;;;;;6.93;1.52;;;;;;;;;;10458526;28;20016;-74
2022/05/11 12:19:57;;;;;;;3.05;1.25;;;;;;;;;;10489132;28;20516;-68
2022/05/11 12:25:00;;;;;;;1.98;1.23;;;;;;;;;;10471358;28;20020;-69
2022/05/11 12:30:04;;;;;;;2.72;1.60;;;;;;;;;;10470647;28;20082;-74
2022/05/11 12:35:12;;;;;;;4.22;1.45;;;;;;;;;;10471191;28;20017;-69
2022/05/11 12:40:17;;;;;;;7.25;2.17;;;;;;;;;;10469581;28;20024;-69
2022/05/11 12:45:20;;;;;;;2.60;2.28;;;;;;;;;;10470449;28;20570;-68
2022/05/11 12:50:31;;;;;;;3.55;2.30;;;;;;;;;;10453092;28;20040;-69
2022/05/11 12:55:34;;;;;;;6.35;2.42;;;;;;;;;;10503849;28;20434;-73
2022/05/11 13:00:35;;;;;;;2.97;2.10;;;;;;;;;;10506335;28;20107;-70
2022/05/11 13:05:35;;;;;;;6.88;2.45;;;;;;;;;;10508139;28;20020;-73
2022/05/11 13:10:37;;;;;;;4.50;2.10;;;;;;;;;;10490522;28;20031;-73
2022/05/11 13:15:37;;;;;;;2.92;2.22;;;;;;;;;;10488701;28;20055;-70
2022/05/11 13:20:40;;;;;;;10.15;2.28;;;;;;;;;;10486903;28;20179;-74
2022/05/11 13:25:46;;;;;;;3.55;2.17;;;;;;;;;;10489589;28;20024;-69
2022/05/11 13:30:46;;;;;;;9.80;3.35;;;;;;;;;;10507733;28;20046;-76
2022/05/11 13:36:03;;;;;;;11.07;2.67;;;;;;;;;;10487579;28;20031;-70
2022/05/11 13:41:05;;;;;;;2.65;1.92;;;;;;;;;;10486846;28;20028;-70
2022/05/11 13:46:07;;;;;;;4.03;1.88;;;;;;;;;;10486725;28;20016;-70
2022/05/11 13:51:20;;;;;;;4.50;2.05;;;;;;;;;;10482063;28;20051;-71
2022/05/11 13:56:22;;;;;;;8.63;2.72;;;;;;;;;;10493274;28;20457;-71
2022/05/11 14:01:25;;;;;;;3.63;1.80;;;;;;;;;;10489260;28;20021;-73
2022/05/11 14:06:34;;;;;;;2.17;1.83;;;;;;;;;;10482686;28;20062;-69
2022/05/11 14:11:34;;;;;;;8.85;2.70;;;;;;;;;;10502471;28;20036;-70
2022/05/11 14:16:34;;;;;;;5.63;1.63;;;;;;;;;;10507108;28;20547;-70
2022/05/11 14:21:37;;;;;;;3.53;1.90;;;;;;;;;;10468410;28;20030;-72
2022/05/11 14:26:38;;;;;;;2.40;1.67;;;;;;;;;;10486959;28;20109;-69
2022/05/11 14:31:39;;;;;;;4.18;1.65;;;;;;;;;;10503567;28;20148;-68
2022/05/11 14:36:44;;;;;;;5.15;2.10;;;;;;;;;;10487824;28;20047;-69
2022/05/11 14:41:44;;;;;;;4.15;1.73;;;;;;;;;;10505076;28;20388;-72
2022/05/11 14:46:45;;;;;;;3.70;1.85;;;;;;;;;;10484771;28;20024;-69
2022/05/11 14:51:45;;;;;;;3.83;2.33;;;;;;;;;;10463511;28;20492;-72
2022/05/11 15:01:55;;;;;;;1.98;1.65;;;;;;;;;;10460810;28;20028;-70
2022/05/11 15:02:06;;;;;;;6.63;1.63;;;;;;;;;;10483801;28;20099;-70
2022/05/11 15:07:13;;;;;;;1.95;1.67;;;;;;;;;;10472898;28;20423;-73
2022/05/11 15:17:32;;;;;;;3.35;1.80;;;;;;;;;;10490788;28;20164;-73
2022/05/11 15:22:36;;;;;;;4.05;2.53;;;;;;;;;;10472296;28;20037;-70
2022/05/11 15:27:36;;;;;;;6.03;1.83;;;;;;;;;;10472282;28;20457;-69
2022/05/11 15:32:36;;;;;;;3.03;1.48;;;;;;;;;;10472096;28;20024;-72
2022/05/11 15:37:37;;;;;;;3.47;1.42;;;;;;;;;;10472714;28;20028;-73
2022/05/11 15:42:37;;;;;;;4.53;2.33;;;;;;;;;;10490039;28;20031;-71
2022/05/11 15:47:37;;;;;;;2.55;2.08;;;;;;;;;;10472156;28;20379;-68
2022/05/11 15:52:42;;;;;;;3.20;1.70;;;;;;;;;;10489514;28;20531;-72
2022/05/11 15:57:42;;;;;;;3.42;1.70;;;;;;;;;;10500235;28;20384;-72
2022/05/11 16:02:43;;;;;;;2.15;1.33;;;;;;;;;;10471272;28;20032;-69
2022/05/11 16:07:44;;;;;;;4.78;1.50;;;;;;;;;;10471639;28;20021;-69
2022/05/11 16:12:44;;;;;;;3.13;1.80;;;;;;;;;;10471802;28;20020;-70
2022/05/11 16:23:05;;;;;;;3.30;1.90;;;;;;;;;;10488930;28;20052;-76
2022/05/11 16:28:06;;;;;;;6.72;2.42;;;;;;;;;;10470136;28;20022;-73
2022/05/11 16:33:06;;;;;;;5.82;2.15;;;;;;;;;;10487924;28;20029;-71
2022/05/11 16:38:07;;;;;;;4.47;2.67;;;;;;;;;;10453260;28;20024;-72
2022/05/11 16:43:07;;;;;;;6.45;2.05;;;;;;;;;;10470238;28;20020;-72
2022/05/11 16:48:08;;;;;;;3.97;1.90;;;;;;;;;;10470172;28;20024;-70
2022/05/11 16:53:08;;;;;;;6.03;2.33;;;;;;;;;;10469181;28;20027;-74
2022/05/11 16:58:08;;;;;;;3.53;2.50;;;;;;;;;;10469431;28;20031;-71
2022/05/11 17:03:10;;;;;;;5.50;2.67;;;;;;;;;;10469314;28;20031;-70
2022/05/11 17:08:11;;;;;;;8.57;2.20;;;;;;;;;;10469060;28;20482;-70
2022/05/11 17:13:12;;;;;;;3.00;2.47;;;;;;;;;;10476096;28;20008;-70
2022/05/11 17:18:12;;;;;;;2.83;2.08;;;;;;;;;;10461658;28;20048;-68
2022/05/11 17:23:12;;;;;;;5.60;2.33;;;;;;;;;;10463730;28;20103;-73
2022/05/11 17:28:13;;;;;;;3.85;2.15;;;;;;;;;;10479483;28;20016;-70
2022/05/11 17:33:13;;;;;;;6.40;1.90;;;;;;;;;;10444409;28;20040;-69
2022/05/11 17:38:16;;;;;;;5.80;2.03;;;;;;;;;;10482650;28;20028;-75
2022/05/11 17:43:17;;;;;;;3.58;2.35;;;;;;;;;;10482638;28;20111;-74
2022/05/11 17:48:18;;;;;;;6.50;2.38;;;;;;;;;;10504839;28;20601;-74
2022/05/11 17:53:19;;;;;;;9.18;2.83;;;;;;;;;;10486185;28;20036;-71
2022/05/11 17:58:20;;;;;;;8.17;3.40;;;;;;;;;;10480707;28;20119;-73
2022/05/11 18:03:21;;;;;;;7.65;3.63;;;;;;;;;;10482700;28;20162;-73
2022/05/11 18:08:21;;;;;;;9.27;4.35;;;;;;;;;;10485120;28;20085;-73
2022/05/11 18:13:21;;;;;;;11.82;4.22;;;;;;;;;;10492574;28;20021;-69
2022/05/11 18:18:22;;;;;;;7.85;3.35;;;;;;;;;;10484181;28;20622;-69
2022/05/11 18:23:22;;;;;;;8.02;3.65;;;;;;;;;;10486801;28;20035;-68
2022/05/11 18:28:26;;;;;;;8.27;3.53;;;;;;;;;;10467376;28;20024;-72
2022/05/11 18:33:27;;;;;;;9.65;3.38;;;;;;;;;;10484525;28;20020;-75
2022/05/11 18:38:27;;;;;;;6.03;3.70;;;;;;;;;;10485235;28;20020;-74
2022/05/11 18:43:29;;;;;;;12.00;6.57;;;;;;;;;;10493462;28;20020;-72
2022/05/11 18:48:29;;;;;;;11.60;4.93;;;;;;;;;;10500549;28;20101;-70
2022/05/11 18:53:30;;;;;;;7.18;4.55;;;;;;;;;;10513021;28;20717;-76
2022/05/11 18:58:30;;;;;;;8.95;3.90;;;;;;;;;;10504980;28;20027;-72
2022/05/11 19:03:31;;;;;;;10.70;4.33;;;;;;;;;;10476964;28;20024;-73
2022/05/11 19:08:31;;;;;;;10.50;4.75;;;;;;;;;;10490763;28;20034;-74
2022/05/11 19:13:32;;;;;;;14.50;5.30;;;;;;;;;;10505848;28;20030;-74
2022/05/11 19:18:32;;;;;;;10.23;4.18;;;;;;;;;;10493570;28;20128;-74
2022/05/11 19:23:32;;;;;;;7.70;4.13;;;;;;;;;;10479924;28;20017;-71
2022/05/11 19:28:33;;;;;;;7.65;4.25;;;;;;;;;;10475398;28;20027;-72
2022/05/11 19:33:36;;;;;;;7.07;5.20;;;;;;;;;;10474436;28;20403;-73
2022/05/11 19:38:37;;;;;;;6.65;4.15;;;;;;;;;;10478934;28;20063;-71
2022/05/11 19:43:37;;;;;;;7.13;3.65;;;;;;;;;;10479505;28;20020;-70
2022/05/11 19:48:38;;;;;;;6.00;3.45;;;;;;;;;;10491980;28;20023;-73
2022/05/11 19:53:39;;;;;;;10.70;4.20;;;;;;;;;;10482157;28;20032;-75
2022/05/11 19:58:40;;;;;;;15.00;4.15;;;;;;;;;;10461365;28;20029;-72
2022/05/11 20:03:41;;;;;;;6.68;3.60;;;;;;;;;;10470416;28;20075;-72
2022/05/11 20:08:41;;;;;;;6.07;3.60;;;;;;;;;;10488827;28;20600;-68
2022/05/11 20:13:42;;;;;;;5.78;3.35;;;;;;;;;;10471987;28;20021;-68
2022/05/11 20:18:42;;;;;;;4.37;3.30;;;;;;;;;;10454848;28;20144;-70
2022/05/11 20:23:44;;;;;;;6.90;3.83;;;;;;;;;;10471579;28;20107;-69
2022/05/11 20:28:45;;;;;;;5.22;3.38;;;;;;;;;;10488326;28;20050;-72
2022/05/11 20:39:04;;;;;;;5.57;4.03;;;;;;;;;;10489392;28;20025;-70
2022/05/11 20:44:05;;;;;;;8.95;3.35;;;;;;;;;;10471186;28;20017;-69
2022/05/11 20:49:05;;;;;;;13.57;4.47;;;;;;;;;;10486919;28;20039;-69
2022/05/11 20:54:06;;;;;;;6.40;3.70;;;;;;;;;;10487471;28;20032;-70
2022/05/11 20:59:07;;;;;;;7.20;3.53;;;;;;;;;;10486986;28;20024;-70
2022/05/11 21:04:07;;;;;;;9.07;3.90;;;;;;;;;;10486743;28;20096;-73
2022/05/11 21:09:07;;;;;;;6.33;3.67;;;;;;;;;;10469958;28;20028;-69
2022/05/11 21:14:08;;;;;;;8.88;3.88;;;;;;;;;;10469810;28;20025;-70
2022/05/11 21:19:08;;;;;;;6.25;3.45;;;;;;;;;;10469323;28;20486;-69
2022/05/11 21:24:08;;;;;;;6.53;4.00;;;;;;;;;;10469279;28;20070;-75
2022/05/11 21:29:09;;;;;;;4.65;3.15;;;;;;;;;;10468950;28;20078;-69
2022/05/11 21:34:09;;;;;;;5.75;3.80;;;;;;;;;;10486804;28;20028;-69
2022/05/11 21:39:10;;;;;;;6.80;4.50;;;;;;;;;;10486619;28;20064;-70
2022/05/11 21:44:10;;;;;;;14.57;3.60;;;;;;;;;;10485383;28;20026;-71
2022/05/11 21:49:10;;;;;;;4.13;3.50;;;;;;;;;;10485418;28;20140;-70
2022/05/11 21:54:10;;;;;;;6.73;3.90;;;;;;;;;;10468264;28;20031;-69
2022/05/11 21:59:11;;;;;;;4.25;3.55;;;;;;;;;;10484783;28;20025;-70
2022/05/11 22:04:11;;;;;;;4.88;3.25;;;;;;;;;;10468077;28;20104;-71
2022/05/11 22:09:11;;;;;;;9.30;4.05;;;;;;;;;;10467822;28;20037;-70
2022/05/11 22:14:13;;;;;;;8.23;4.38;;;;;;;;;;10491786;28;20030;-71
2022/05/11 22:19:13;;;;;;;4.82;3.63;;;;;;;;;;10495305;28;20071;-68
2022/05/11 22:24:13;;;;;;;5.80;3.90;;;;;;;;;;10476338;28;20085;-73
2022/05/11 22:29:14;;;;;;;9.30;4.40;;;;;;;;;;10476298;28;20040;-73
2022/05/11 22:34:14;;;;;;;4.80;3.30;;;;;;;;;;10492814;28;20032;-69
2022/05/11 22:39:14;;;;;;;5.88;4.18;;;;;;;;;;10459066;28;20028;-70
2022/05/11 22:44:15;;;;;;;8.15;4.40;;;;;;;;;;10493383;28;20077;-73
2022/05/11 22:49:15;;;;;;;5.60;3.55;;;;;;;;;;10492417;28;20121;-73
2022/05/11 22:54:15;;;;;;;5.60;3.97;;;;;;;;;;10493107;28;20036;-70
2022/05/11 22:59:15;;;;;;;7.47;3.75;;;;;;;;;;10474712;28;20036;-73
2022/05/11 23:04:16;;;;;;;6.10;3.60;;;;;;;;;;10474750;28;20028;-72
2022/05/11 23:09:16;;;;;;;5.43;4.13;;;;;;;;;;10491021;28;20024;-70
2022/05/11 23:14:16;;;;;;;6.80;4.05;;;;;;;;;;10474484;28;20028;-73
2022/05/11 23:19:18;;;;;;;7.15;4.88;;;;;;;;;;10491160;28;20057;-73
2022/05/11 23:24:19;;;;;;;6.22;4.15;;;;;;;;;;10473257;28;20482;-75
2022/05/11 23:29:20;;;;;;;6.78;4.22;;;;;;;;;;10473677;28;20021;-77
2022/05/11 23:34:20;;;;;;;6.05;3.90;;;;;;;;;;10473580;28;20082;-70
2022/05/11 23:39:20;;;;;;;7.67;4.33;;;;;;;;;;10456676;28;20024;-71
2022/05/11 23:44:20;;;;;;;5.90;3.97;;;;;;;;;;10490386;28;20028;-73
2022/05/11 23:49:21;;;;;;;8.05;4.93;;;;;;;;;;10456605;28;20024;-73
2022/05/11 23:54:22;;;;;;;7.70;4.60;;;;;;;;;;10473015;28;20036;-78
2022/05/11 23:59:23;;;;;;;6.60;4.47;;;;;;;;;;10472315;28;20032;-74
